Time;durP1;ratioP1;P1;durP2;ratioP2;P2;SDS_P1;SDS_P2;PMS_P1;PMS_P2;Temp;Humidity;BMP_temperature;BMP_pressure;BME280_temperature;BME280_humidity;BME280_pressure;Samples;Min_cycle;Max_cycle;Signal;HPM_P1;HPM_P2
2021/05/16 00:02:03;;;;;;;1.63;1.27;;;13.90;99.90;;;;;;5027094;28;20225;-76
2021/05/16 00:04:29;;;;;;;1.50;1.40;;;13.90;99.90;;;;;;5026857;28;20265;-76
2021/05/16 00:06:56;;;;;;;1.40;1.30;;;13.90;99.90;;;;;;5026928;28;20209;-76
2021/05/16 00:09:23;;;;;;;1.10;1.10;;;13.80;99.90;;;;;;5026617;28;20209;-77
2021/05/16 00:11:49;;;;;;;1.10;1.10;;;13.80;99.90;;;;;;5026617;28;20221;-77
2021/05/16 00:14:15;;;;;;;1.33;1.17;;;13.80;99.90;;;;;;5026795;28;20615;-76
2021/05/16 00:16:41;;;;;;;1.20;1.10;;;13.80;99.90;;;;;;5026243;28;20801;-76
2021/05/16 00:19:08;;;;;;;1.30;1.20;;;13.80;99.90;;;;;;5026236;28;20819;-76
2021/05/16 00:21:34;;;;;;;1.47;1.37;;;13.80;99.90;;;;;;5026414;28;20232;-76
2021/05/16 00:24:01;;;;;;;1.33;1.20;;;13.70;99.90;;;;;;5026603;28;20215;-77
2021/05/16 00:26:27;;;;;;;1.33;1.23;;;13.70;99.90;;;;;;5026300;28;20248;-76
2021/05/16 00:28:53;;;;;;;1.10;1.00;;;13.70;99.90;;;;;;5026399;28;20213;-76
2021/05/16 00:31:20;;;;;;;1.10;1.10;;;13.60;99.90;;;;;;5026168;28;20205;-76
2021/05/16 00:33:46;;;;;;;1.13;1.13;;;13.70;99.90;;;;;;5026334;28;20216;-76
2021/05/16 00:36:12;;;;;;;6.63;1.10;;;13.60;99.90;;;;;;5026370;28;20224;-77
2021/05/16 00:38:38;;;;;;;1.23;1.17;;;13.60;99.90;;;;;;5025647;28;20205;-77
2021/05/16 00:41:05;;;;;;;1.00;1.00;;;13.60;99.90;;;;;;5026329;28;20241;-77
2021/05/16 00:43:33;;;;;;;1.13;1.13;;;13.60;99.90;;;;;;5026028;28;20289;-77
2021/05/16 00:45:59;;;;;;;1.17;1.17;;;13.50;99.90;;;;;;5026325;28;20240;-77
2021/05/16 00:48:25;;;;;;;1.03;1.00;;;13.50;99.90;;;;;;5026042;28;20349;-77
2021/05/16 00:50:51;;;;;;;1.07;1.07;;;13.50;99.90;;;;;;5025748;28;20654;-76
2021/05/16 00:53:20;;;;;;;4.67;1.33;;;13.40;99.90;;;;;;5026245;28;20248;-76
2021/05/16 00:55:47;;;;;;;0.93;0.90;;;13.40;99.90;;;;;;5026332;28;20257;-76
2021/05/16 00:58:14;;;;;;;1.00;1.00;;;13.30;99.90;;;;;;5026118;28;20213;-76
2021/05/16 01:00:41;;;;;;;0.90;0.90;;;13.30;99.90;;;;;;5025895;28;20245;-77
2021/05/16 01:03:07;;;;;;;0.97;0.87;;;13.40;99.90;;;;;;5025812;28;20236;-76
2021/05/16 01:05:34;;;;;;;1.20;1.10;;;13.30;99.90;;;;;;5026156;28;20208;-77
2021/05/16 01:08:00;;;;;;;1.03;0.93;;;13.30;99.90;;;;;;5026148;28;20218;-76
2021/05/16 01:10:26;;;;;;;2.53;1.30;;;13.30;99.90;;;;;;5025430;28;20248;-77
2021/05/16 01:12:55;;;;;;;1.27;1.20;;;13.30;99.90;;;;;;5025948;28;20227;-76
2021/05/16 01:15:23;;;;;;;1.20;1.20;;;13.30;99.90;;;;;;5041648;28;20269;-76
2021/05/16 01:17:50;;;;;;;1.33;0.97;;;13.30;99.90;;;;;;5045406;27;20762;-76
2021/05/16 01:20:19;;;;;;;1.03;1.03;;;13.30;99.90;;;;;;5045606;28;20204;-76
2021/05/16 01:22:53;;;;;;;1.10;1.00;;;13.30;99.90;;;;;;5045508;28;20314;-77
2021/05/16 01:25:19;;;;;;;1.70;1.00;;;13.20;99.90;;;;;;5045430;28;20189;-76
2021/05/16 01:27:46;;;;;;;1.63;0.90;;;13.30;99.90;;;;;;5045345;28;20216;-77
2021/05/16 01:30:13;;;;;;;2.20;1.03;;;13.20;99.90;;;;;;5045418;28;20216;-76
2021/05/16 01:32:39;;;;;;;0.90;0.90;;;13.30;99.90;;;;;;5045237;28;20205;-76
2021/05/16 01:35:07;;;;;;;1.00;1.00;;;13.20;99.90;;;;;;5045778;28;20276;-76
2021/05/16 01:37:33;;;;;;;1.07;0.97;;;13.20;99.90;;;;;;5045180;28;20215;-76
2021/05/16 01:40:01;;;;;;;1.13;1.10;;;13.20;99.90;;;;;;5044625;28;20838;-76
2021/05/16 01:42:27;;;;;;;1.07;0.97;;;13.20;99.90;;;;;;5045254;28;20238;-76
2021/05/16 01:44:54;;;;;;;0.90;0.90;;;13.20;99.90;;;;;;5045257;28;20208;-76
2021/05/16 01:47:20;;;;;;;1.33;1.30;;;13.20;99.90;;;;;;5045358;28;20634;-77
2021/05/16 01:49:50;;;;;;;1.17;1.17;;;13.20;99.90;;;;;;5047045;28;20238;-76
2021/05/16 01:52:16;;;;;;;1.47;1.10;;;13.20;99.90;;;;;;5048811;28;20216;-76
2021/05/16 01:54:43;;;;;;;1.47;1.23;;;13.20;99.90;;;;;;5048822;28;20240;-76
2021/05/16 01:57:10;;;;;;;0.83;0.83;;;13.20;99.90;;;;;;5048642;28;20201;-76
2021/05/16 01:59:37;;;;;;;0.93;0.93;;;13.20;99.90;;;;;;5048266;27;20693;-76
2021/05/16 02:02:04;;;;;;;1.23;1.13;;;13.10;99.90;;;;;;5048509;28;20223;-76
2021/05/16 02:04:32;;;;;;;1.40;1.20;;;13.10;99.90;;;;;;5048719;28;20204;-77
2021/05/16 02:06:59;;;;;;;1.17;1.17;;;13.10;99.90;;;;;;5048670;28;20239;-77
2021/05/16 02:09:26;;;;;;;0.93;0.87;;;13.10;99.90;;;;;;5048809;28;20208;-77
2021/05/16 02:11:52;;;;;;;1.70;1.00;;;13.10;99.90;;;;;;5048417;28;20216;-77
2021/05/16 02:14:26;;;;;;;1.10;1.00;;;13.00;99.90;;;;;;5048820;28;20209;-77
2021/05/16 02:16:53;;;;;;;1.40;1.20;;;13.00;99.90;;;;;;5048772;28;20228;-77
2021/05/16 02:19:20;;;;;;;0.90;0.90;;;13.00;99.90;;;;;;5048474;28;20652;-77
2021/05/16 02:21:46;;;;;;;1.10;1.10;;;13.00;99.90;;;;;;5048039;28;20297;-78
2021/05/16 02:24:14;;;;;;;0.90;0.90;;;13.00;99.90;;;;;;5048608;28;20261;-77
2021/05/16 02:26:41;;;;;;;1.17;1.07;;;13.00;99.90;;;;;;5048567;28;20208;-77
2021/05/16 02:29:07;;;;;;;1.13;1.13;;;12.90;99.90;;;;;;5048291;28;20204;-77
2021/05/16 02:31:34;;;;;;;1.00;0.90;;;12.90;99.90;;;;;;5048010;28;20666;-77
2021/05/16 02:34:00;;;;;;;0.97;0.97;;;12.90;99.90;;;;;;5048359;28;20204;-76
2021/05/16 02:36:27;;;;;;;1.30;1.20;;;12.80;99.90;;;;;;5048427;28;20208;-76
2021/05/16 02:38:53;;;;;;;1.03;1.03;;;12.80;99.90;;;;;;5048233;28;20232;-76
2021/05/16 02:41:19;;;;;;;1.00;1.00;;;12.80;99.90;;;;;;5048268;28;20200;-77
2021/05/16 02:43:45;;;;;;;1.33;1.23;;;12.80;99.90;;;;;;5047681;28;20232;-76
2021/05/16 02:46:12;;;;;;;0.90;0.90;;;12.80;99.90;;;;;;5048422;28;20212;-76
2021/05/16 02:48:39;;;;;;;0.90;0.90;;;12.70;99.90;;;;;;5048156;28;20230;-76
2021/05/16 02:51:05;;;;;;;1.10;1.10;;;12.80;99.90;;;;;;5048108;28;20261;-76
2021/05/16 02:53:32;;;;;;;1.00;1.00;;;12.70;99.90;;;;;;5048021;28;20646;-76
2021/05/16 02:55:58;;;;;;;1.80;1.10;;;12.70;99.90;;;;;;5048080;28;20257;-76
2021/05/16 02:58:24;;;;;;;1.17;1.17;;;12.70;99.90;;;;;;5047537;28;20208;-76
2021/05/16 03:00:50;;;;;;;1.37;1.27;;;12.70;99.90;;;;;;5047298;28;20719;-76
2021/05/16 03:03:17;;;;;;;1.20;1.10;;;12.60;99.90;;;;;;5047621;28;20271;-76
2021/05/16 03:05:44;;;;;;;1.10;1.10;;;12.60;99.90;;;;;;5047787;28;20557;-76
2021/05/16 03:08:10;;;;;;;2.03;1.43;;;12.60;99.90;;;;;;5047584;28;20209;-76
2021/05/16 03:10:36;;;;;;;1.63;1.33;;;12.60;99.90;;;;;;5047467;28;20219;-76
2021/05/16 03:13:02;;;;;;;2.07;1.80;;;12.60;99.90;;;;;;5047541;28;20204;-76
2021/05/16 03:15:29;;;;;;;1.73;1.30;;;12.60;99.90;;;;;;5047573;28;20200;-76
2021/05/16 03:17:56;;;;;;;1.30;1.30;;;12.60;99.90;;;;;;5047670;28;20239;-76
2021/05/16 03:20:22;;;;;;;1.10;1.10;;;12.60;99.90;;;;;;5047531;28;20215;-76
2021/05/16 03:22:49;;;;;;;1.30;1.27;;;12.50;99.90;;;;;;5047262;28;20228;-76
2021/05/16 03:25:15;;;;;;;1.40;1.40;;;12.50;99.90;;;;;;5046999;28;20204;-76
2021/05/16 03:27:41;;;;;;;1.27;1.27;;;12.50;99.90;;;;;;5047305;28;20204;-76
2021/05/16 03:30:10;;;;;;;2.50;1.33;;;12.50;99.90;;;;;;5047141;28;20236;-76
2021/05/16 03:32:36;;;;;;;1.50;1.40;;;12.50;99.90;;;;;;5047151;28;20269;-76
2021/05/16 03:35:04;;;;;;;1.23;1.13;;;12.60;99.90;;;;;;5047221;27;20583;-77
2021/05/16 03:37:30;;;;;;;2.00;1.20;;;12.60;99.90;;;;;;5047112;28;20235;-76
2021/05/16 03:40:00;;;;;;;1.20;1.20;;;12.60;99.90;;;;;;5046811;27;20613;-76
2021/05/16 03:42:26;;;;;;;1.40;1.30;;;12.60;99.90;;;;;;5046954;28;20216;-76
2021/05/16 03:44:55;;;;;;;1.20;1.20;;;12.60;99.90;;;;;;5046826;28;20207;-76
2021/05/16 03:47:22;;;;;;;1.17;1.17;;;12.70;99.90;;;;;;5047268;28;20261;-76
2021/05/16 03:49:48;;;;;;;1.30;1.20;;;12.60;99.90;;;;;;5047163;28;20204;-76
2021/05/16 03:52:18;;;;;;;1.00;1.00;;;12.70;99.90;;;;;;5047043;28;20539;-76
2021/05/16 03:54:44;;;;;;;1.00;1.00;;;12.70;99.90;;;;;;5047064;27;20292;-76
2021/05/16 03:57:11;;;;;;;1.10;1.10;;;12.70;99.90;;;;;;5046821;28;20204;-76
2021/05/16 03:59:38;;;;;;;0.90;0.90;;;12.70;99.90;;;;;;5046293;28;20673;-76
2021/05/16 04:02:04;;;;;;;1.10;1.10;;;12.70;99.90;;;;;;5046497;28;20698;-77
2021/05/16 04:04:30;;;;;;;1.60;1.50;;;12.70;99.90;;;;;;5046756;28;20230;-76
2021/05/16 04:06:56;;;;;;;1.30;1.30;;;12.80;99.90;;;;;;5046694;28;20219;-77
2021/05/16 04:09:22;;;;;;;2.00;1.40;;;12.80;99.90;;;;;;5046821;28;20208;-76
2021/05/16 04:11:48;;;;;;;1.63;1.47;;;12.70;99.90;;;;;;5045679;28;20249;-76
2021/05/16 04:14:16;;;;;;;1.03;1.03;;;12.80;99.90;;;;;;5046434;28;20365;-76
2021/05/16 04:16:42;;;;;;;1.20;1.20;;;12.70;99.90;;;;;;5046557;28;20311;-76
2021/05/16 04:19:08;;;;;;;1.40;1.30;;;12.70;99.90;;;;;;5046483;28;20211;-77
2021/05/16 04:21:34;;;;;;;0.90;0.90;;;12.80;99.90;;;;;;5046275;28;20293;-76
2021/05/16 04:24:00;;;;;;;1.20;1.20;;;12.80;99.90;;;;;;5046709;28;20219;-76
2021/05/16 04:26:26;;;;;;;1.50;1.40;;;12.80;99.90;;;;;;5046266;28;20252;-77
2021/05/16 04:28:52;;;;;;;1.30;1.27;;;12.70;99.90;;;;;;5046313;28;20208;-76
2021/05/16 04:31:19;;;;;;;1.37;1.30;;;12.70;99.90;;;;;;5046325;28;20212;-76
2021/05/16 04:33:46;;;;;;;1.70;1.17;;;12.80;99.90;;;;;;5046286;28;20208;-76
2021/05/16 04:36:12;;;;;;;1.90;1.30;;;12.80;99.90;;;;;;5046271;28;20215;-77
2021/05/16 04:38:38;;;;;;;1.23;1.17;;;12.90;99.90;;;;;;5045912;28;20204;-76
2021/05/16 04:41:04;;;;;;;1.40;1.40;;;12.90;99.90;;;;;;5046319;28;20200;-76
2021/05/16 04:43:33;;;;;;;1.70;1.60;;;12.90;99.90;;;;;;5045947;28;20284;-76
2021/05/16 04:45:59;;;;;;;1.30;1.30;;;13.00;99.90;;;;;;5045956;28;20260;-76
2021/05/16 04:48:26;;;;;;;1.90;1.50;;;13.00;99.90;;;;;;5045913;28;20477;-76
2021/05/16 04:50:52;;;;;;;1.87;1.40;;;13.00;99.90;;;;;;5046035;28;20552;-77
2021/05/16 04:53:18;;;;;;;1.67;1.57;;;13.10;99.90;;;;;;5045938;27;20209;-76
2021/05/16 04:55:44;;;;;;;1.57;1.47;;;13.10;99.90;;;;;;5045986;28;20208;-76
2021/05/16 04:58:10;;;;;;;1.90;1.80;;;13.10;99.90;;;;;;5045669;28;20200;-77
2021/05/16 05:00:36;;;;;;;1.40;1.30;;;13.10;99.90;;;;;;5045763;28;20212;-77
2021/05/16 05:03:03;;;;;;;1.13;1.13;;;13.10;99.90;;;;;;5045765;28;20235;-76
2021/05/16 05:05:30;;;;;;;1.53;1.40;;;13.10;99.90;;;;;;5045873;28;20257;-76
2021/05/16 05:07:56;;;;;;;2.80;1.40;;;13.20;99.90;;;;;;5045654;27;20350;-76
2021/05/16 05:10:22;;;;;;;1.90;1.47;;;13.10;99.90;;;;;;5045625;28;20680;-76
2021/05/16 05:12:48;;;;;;;1.60;1.50;;;13.20;99.90;;;;;;5045679;28;20291;-77
2021/05/16 05:15:14;;;;;;;1.80;1.70;;;13.20;99.90;;;;;;5045614;28;20276;-76
2021/05/16 05:17:41;;;;;;;1.37;1.27;;;13.10;99.90;;;;;;5045435;28;20236;-77
2021/05/16 05:20:08;;;;;;;1.23;1.23;;;13.10;99.90;;;;;;5045878;28;20231;-76
2021/05/16 05:22:35;;;;;;;1.70;1.60;;;13.10;99.90;;;;;;5045766;28;20267;-76
2021/05/16 05:25:02;;;;;;;1.50;1.40;;;13.10;99.90;;;;;;5044545;28;20263;-77
2021/05/16 05:27:28;;;;;;;1.40;1.30;;;13.10;99.90;;;;;;5046004;28;20208;-77
2021/05/16 05:29:55;;;;;;;1.43;1.20;;;13.00;99.90;;;;;;5045283;28;20744;-77
2021/05/16 05:32:21;;;;;;;1.20;1.20;;;13.00;99.90;;;;;;5045186;28;20208;-76
2021/05/16 05:34:47;;;;;;;1.50;1.50;;;13.10;99.90;;;;;;5045296;28;20212;-76
2021/05/16 05:37:13;;;;;;;1.57;1.27;;;13.10;99.90;;;;;;5045328;28;20211;-76
2021/05/16 05:39:40;;;;;;;1.17;1.17;;;13.10;99.90;;;;;;5045081;28;20239;-77
2021/05/16 05:42:06;;;;;;;1.30;1.30;;;13.10;99.90;;;;;;5045172;28;20269;-76
2021/05/16 05:44:34;;;;;;;1.60;1.50;;;13.20;99.90;;;;;;5045484;28;20215;-77
2021/05/16 05:47:01;;;;;;;1.90;1.33;;;13.10;99.90;;;;;;5045330;27;20658;-76
2021/05/16 05:49:27;;;;;;;1.83;1.10;;;13.20;99.90;;;;;;5045032;28;20969;-76
2021/05/16 05:51:53;;;;;;;1.37;1.30;;;13.10;99.90;;;;;;5045327;28;20212;-76
2021/05/16 05:54:19;;;;;;;1.43;1.33;;;13.20;99.90;;;;;;5045616;28;20211;-77
2021/05/16 05:56:46;;;;;;;2.27;1.30;;;13.20;99.90;;;;;;5045242;28;20576;-77
2021/05/16 05:59:13;;;;;;;1.53;1.43;;;13.20;99.90;;;;;;5045186;28;20208;-77
2021/05/16 06:01:39;;;;;;;1.60;1.50;;;13.30;99.90;;;;;;5045317;28;20208;-77
2021/05/16 06:04:06;;;;;;;1.63;1.57;;;13.30;99.90;;;;;;5045246;28;20276;-77
2021/05/16 06:06:32;;;;;;;1.40;1.30;;;13.30;99.90;;;;;;5045029;28;20632;-77
2021/05/16 06:08:58;;;;;;;1.50;1.40;;;13.40;99.90;;;;;;5045215;28;20208;-76
2021/05/16 06:11:24;;;;;;;1.30;1.20;;;13.40;99.90;;;;;;5044982;28;20213;-77
2021/05/16 06:13:51;;;;;;;1.47;1.37;;;13.40;99.90;;;;;;5044959;28;20236;-77
2021/05/16 06:16:20;;;;;;;1.27;1.20;;;13.40;99.90;;;;;;5044539;28;20292;-76
2021/05/16 06:18:48;;;;;;;1.13;1.10;;;13.40;99.90;;;;;;5044949;28;20208;-76
2021/05/16 06:21:14;;;;;;;1.17;1.07;;;13.50;99.90;;;;;;5045242;28;20204;-77
2021/05/16 06:23:47;;;;;;;1.37;1.17;;;13.40;99.90;;;;;;5044844;28;20232;-76
2021/05/16 06:26:13;;;;;;;2.00;1.10;;;13.20;99.90;;;;;;5044846;28;20204;-77
2021/05/16 06:28:39;;;;;;;1.07;1.03;;;13.20;99.90;;;;;;5045005;28;20212;-77
2021/05/16 06:31:06;;;;;;;1.30;1.20;;;13.00;99.90;;;;;;5045084;28;20212;-77
2021/05/16 06:33:32;;;;;;;1.07;1.07;;;13.10;99.90;;;;;;5044874;28;20265;-77
2021/05/16 06:35:59;;;;;;;0.97;0.97;;;13.20;99.90;;;;;;5046926;28;20212;-76
2021/05/16 06:38:25;;;;;;;1.63;1.00;;;13.30;99.90;;;;;;5048141;28;20211;-76
2021/05/16 06:40:51;;;;;;;1.27;0.97;;;13.30;99.90;;;;;;5048401;28;20196;-77
2021/05/16 06:43:18;;;;;;;1.10;1.10;;;13.20;99.90;;;;;;5048051;28;20294;-77
2021/05/16 06:45:44;;;;;;;1.17;1.07;;;13.20;99.90;;;;;;5048014;27;20264;-77
2021/05/16 06:48:11;;;;;;;2.63;1.30;;;13.30;99.90;;;;;;5048170;28;20211;-77
2021/05/16 06:50:37;;;;;;;1.27;1.13;;;13.30;99.90;;;;;;5048389;28;20216;-76
2021/05/16 06:53:03;;;;;;;1.10;1.00;;;13.30;99.90;;;;;;5048056;28;20212;-76
2021/05/16 06:55:29;;;;;;;0.80;0.80;;;13.40;99.90;;;;;;5048101;28;20208;-77
2021/05/16 06:57:55;;;;;;;0.90;0.90;;;13.30;99.90;;;;;;5047847;28;20224;-76
2021/05/16 07:00:22;;;;;;;1.00;0.97;;;13.30;99.90;;;;;;5047816;28;20204;-77
2021/05/16 07:02:48;;;;;;;1.10;1.10;;;13.00;99.90;;;;;;5047859;28;20235;-77
2021/05/16 07:05:15;;;;;;;1.27;1.20;;;12.90;99.90;;;;;;5047677;28;20500;-76
2021/05/16 07:07:41;;;;;;;1.60;1.10;;;13.10;99.90;;;;;;5047730;28;20205;-77
2021/05/16 07:10:08;;;;;;;1.97;1.40;;;13.20;99.90;;;;;;5047677;28;20215;-76
2021/05/16 07:12:34;;;;;;;0.80;0.80;;;13.30;99.90;;;;;;5047748;28;20208;-76
2021/05/16 07:15:00;;;;;;;1.57;1.47;;;13.40;99.90;;;;;;5047026;28;20585;-77
2021/05/16 07:17:26;;;;;;;1.97;1.30;;;13.50;99.90;;;;;;5047202;28;20224;-76
2021/05/16 07:19:53;;;;;;;1.30;1.10;;;13.50;99.90;;;;;;5047323;28;20208;-76
2021/05/16 07:22:20;;;;;;;1.37;1.20;;;13.60;99.90;;;;;;5047504;28;20234;-76
2021/05/16 07:24:46;;;;;;;1.40;1.27;;;13.50;99.90;;;;;;5047481;28;20253;-77
2021/05/16 07:27:12;;;;;;;1.30;1.30;;;13.40;99.90;;;;;;5047440;28;20204;-77
2021/05/16 07:29:39;;;;;;;1.03;1.03;;;13.30;99.90;;;;;;5047390;28;20204;-76
2021/05/16 07:32:05;;;;;;;1.50;1.40;;;13.30;99.90;;;;;;5047126;27;20225;-77
2021/05/16 07:34:31;;;;;;;1.33;1.30;;;13.40;99.90;;;;;;5047307;28;20210;-77
2021/05/16 07:36:58;;;;;;;1.60;1.50;;;13.40;99.90;;;;;;5047037;28;20205;-77
2021/05/16 07:39:24;;;;;;;1.20;1.20;;;13.40;99.90;;;;;;5047022;27;20244;-77
2021/05/16 07:41:51;;;;;;;1.40;1.27;;;13.50;99.90;;;;;;5047177;28;20257;-76
2021/05/16 07:44:17;;;;;;;1.37;1.30;;;13.70;99.90;;;;;;5046794;28;20240;-77
2021/05/16 07:46:43;;;;;;;1.20;1.20;;;13.80;99.90;;;;;;5045953;28;20227;-76
2021/05/16 07:49:09;;;;;;;1.43;1.30;;;13.90;99.90;;;;;;5047337;28;20571;-77
2021/05/16 07:51:35;;;;;;;1.43;1.33;;;14.10;99.90;;;;;;5046872;28;20204;-77
2021/05/16 07:54:02;;;;;;;1.00;1.00;;;14.20;99.90;;;;;;5046936;28;20208;-76
2021/05/16 07:56:29;;;;;;;1.30;1.20;;;14.20;99.90;;;;;;5046713;28;20595;-77
2021/05/16 07:58:55;;;;;;;1.30;1.00;;;14.20;99.90;;;;;;5046831;28;20215;-76
2021/05/16 08:01:21;;;;;;;1.27;1.10;;;14.30;99.90;;;;;;5046864;28;20205;-77
2021/05/16 08:03:48;;;;;;;1.20;1.20;;;14.40;99.90;;;;;;5046669;28;20235;-76
2021/05/16 08:06:14;;;;;;;1.00;1.00;;;14.00;99.90;;;;;;5046786;28;20619;-76
2021/05/16 08:08:40;;;;;;;0.97;0.97;;;13.70;99.90;;;;;;5046913;28;20208;-76
2021/05/16 08:11:06;;;;;;;1.80;0.90;;;13.90;99.90;;;;;;5046602;28;20204;-76
2021/05/16 08:13:33;;;;;;;1.10;1.00;;;13.90;99.90;;;;;;5046902;28;20219;-76
2021/05/16 08:15:59;;;;;;;1.00;1.00;;;13.70;99.90;;;;;;5046530;28;20288;-76
2021/05/16 08:18:25;;;;;;;1.20;0.83;;;13.60;99.90;;;;;;5046584;28;20200;-76
2021/05/16 08:20:52;;;;;;;1.10;1.00;;;13.60;99.90;;;;;;5046459;28;20204;-76
2021/05/16 08:23:18;;;;;;;2.07;0.90;;;13.80;99.90;;;;;;5046615;28;20232;-77
2021/05/16 08:25:44;;;;;;;1.13;1.03;;;13.70;99.90;;;;;;5046581;28;20204;-76
2021/05/16 08:28:10;;;;;;;0.93;0.93;;;13.90;99.90;;;;;;5046637;28;20296;-76
2021/05/16 08:30:38;;;;;;;1.27;1.10;;;13.90;99.90;;;;;;5046119;28;20664;-76
2021/05/16 08:33:04;;;;;;;2.17;1.17;;;13.90;99.90;;;;;;5046265;28;20232;-76
2021/05/16 08:35:30;;;;;;;0.87;0.87;;;13.90;99.90;;;;;;5046580;28;20237;-76
2021/05/16 08:37:56;;;;;;;0.87;0.80;;;13.50;99.90;;;;;;5046403;28;20211;-76
2021/05/16 08:40:23;;;;;;;0.90;0.90;;;13.40;99.90;;;;;;5046150;28;20248;-76
2021/05/16 08:42:49;;;;;;;1.63;1.17;;;13.20;99.90;;;;;;5046366;28;20239;-76
2021/05/16 08:45:16;;;;;;;0.80;0.80;;;13.20;99.90;;;;;;5046414;28;20204;-76
2021/05/16 08:47:44;;;;;;;1.87;1.17;;;13.10;99.90;;;;;;5046316;28;20612;-76
2021/05/16 08:50:13;;;;;;;2.27;1.50;;;13.10;99.90;;;;;;5046182;28;20211;-76
2021/05/16 08:52:39;;;;;;;1.43;1.33;;;12.90;99.90;;;;;;5046184;28;20581;-76
2021/05/16 08:55:08;;;;;;;1.87;1.30;;;12.90;99.90;;;;;;5045958;28;20204;-76
2021/05/16 08:57:34;;;;;;;0.83;0.83;;;13.00;99.90;;;;;;5045897;28;20204;-77
2021/05/16 09:00:10;;;;;;;1.00;0.90;;;13.00;99.90;;;;;;5045857;28;20205;-76
2021/05/16 09:02:59;;;;;;;1.23;0.83;;;13.20;99.90;;;;;;5046287;28;20211;-76
2021/05/16 09:05:26;;;;;;;1.63;1.20;;;13.40;99.90;;;;;;5046127;28;20335;-76
2021/05/16 09:07:59;;;;;;;1.03;1.03;;;13.50;99.90;;;;;;5045625;28;20742;-77
2021/05/16 09:10:25;;;;;;;1.27;1.17;;;13.70;99.90;;;;;;5046161;28;20295;-76
2021/05/16 09:12:51;;;;;;;1.60;0.87;;;13.90;99.90;;;;;;5045826;28;20240;-76
2021/05/16 09:15:21;;;;;;;1.40;1.10;;;14.10;99.90;;;;;;5045664;28;20212;-76
2021/05/16 09:17:52;;;;;;;1.63;1.27;;;14.30;99.90;;;;;;5045837;27;20665;-76
2021/05/16 09:20:24;;;;;;;2.83;1.37;;;14.40;99.90;;;;;;5045939;28;20196;-76
2021/05/16 09:22:51;;;;;;;1.53;1.17;;;14.60;99.90;;;;;;5045946;28;20217;-76
2021/05/16 09:25:20;;;;;;;1.27;1.13;;;14.70;99.90;;;;;;5046116;28;20216;-76
2021/05/16 09:27:47;;;;;;;2.57;1.30;;;14.90;99.90;;;;;;5045980;28;20261;-76
2021/05/16 09:30:31;;;;;;;1.33;1.13;;;15.10;99.90;;;;;;5045837;28;20216;-76
2021/05/16 09:33:01;;;;;;;2.43;1.30;;;15.30;99.90;;;;;;5045648;28;20201;-76
2021/05/16 09:35:36;;;;;;;2.30;1.33;;;15.50;99.90;;;;;;5045359;28;20569;-77
2021/05/16 09:38:12;;;;;;;2.00;1.80;;;15.60;99.90;;;;;;5045725;28;20203;-77
2021/05/16 09:40:41;;;;;;;2.00;1.90;;;15.80;99.90;;;;;;5045098;28;20318;-76
2021/05/16 09:43:16;;;;;;;3.87;2.33;;;15.90;99.90;;;;;;5045441;28;20300;-77
2021/05/16 09:45:58;;;;;;;1.73;1.50;;;16.00;99.90;;;;;;5045658;28;20249;-77
2021/05/16 09:48:41;;;;;;;3.97;1.53;;;16.00;99.90;;;;;;5045543;28;20208;-76
2021/05/16 09:51:15;;;;;;;2.30;1.27;;;16.00;99.90;;;;;;5045457;28;20197;-76
2021/05/16 09:54:08;;;;;;;3.90;1.10;;;16.00;99.90;;;;;;5045707;28;20199;-76
2021/05/16 09:56:35;;;;;;;4.43;1.70;;;15.80;99.90;;;;;;5045399;28;20201;-77
2021/05/16 09:59:06;;;;;;;2.53;1.47;;;15.80;99.90;;;;;;5045323;28;20235;-77
2021/05/16 10:01:32;;;;;;;5.70;2.03;;;15.50;99.90;;;;;;5045241;28;20568;-77
2021/05/16 10:04:00;;;;;;;5.63;1.47;;;15.10;99.90;;;;;;5045354;28;20241;-76
2021/05/16 10:06:28;;;;;;;5.10;2.30;;;14.70;99.90;;;;;;5045189;28;20204;-76
2021/05/16 10:08:55;;;;;;;2.93;1.63;;;14.20;99.90;;;;;;5045152;28;20208;-77
2021/05/16 10:11:24;;;;;;;6.00;1.70;;;14.10;99.90;;;;;;5048017;28;20215;-77
2021/05/16 10:14:02;;;;;;;7.03;2.30;;;14.00;99.90;;;;;;5048575;28;20236;-77
2021/05/16 10:16:34;;;;;;;3.33;2.10;;;14.00;99.90;;;;;;5048298;28;20231;-77
2021/05/16 10:19:01;;;;;;;3.70;2.30;;;14.10;99.90;;;;;;5048478;28;20239;-77
2021/05/16 10:21:28;;;;;;;5.27;2.07;;;14.20;99.90;;;;;;5048317;28;20826;-77
2021/05/16 10:24:11;;;;;;;4.07;1.53;;;14.30;99.90;;;;;;5048478;28;20228;-77
2021/05/16 10:26:38;;;;;;;4.13;2.30;;;14.40;99.90;;;;;;5048646;28;20243;-76
2021/05/16 10:29:06;;;;;;;4.90;1.90;;;14.50;99.90;;;;;;5048138;28;20212;-76
2021/05/16 10:31:47;;;;;;;4.97;2.10;;;14.60;99.90;;;;;;5048117;28;20211;-77
2021/05/16 10:34:41;;;;;;;4.10;1.63;;;14.80;99.90;;;;;;5048156;28;20666;-77
2021/05/16 10:37:10;;;;;;;3.97;1.60;;;15.20;99.90;;;;;;5048204;28;20216;-77
2021/05/16 10:39:52;;;;;;;3.10;1.73;;;15.50;99.90;;;;;;5047282;28;20239;-77
2021/05/16 10:42:21;;;;;;;3.10;1.83;;;15.80;99.90;;;;;;5046712;28;20204;-77
2021/05/16 10:45:09;;;;;;;4.20;1.83;;;15.90;99.90;;;;;;5046594;28;21002;-78
2021/05/16 10:47:53;;;;;;;5.17;1.77;;;16.00;99.90;;;;;;5046948;28;20196;-77
2021/05/16 10:50:45;;;;;;;2.97;1.33;;;16.20;99.90;;;;;;5046872;28;20225;-76
2021/05/16 10:53:15;;;;;;;2.70;1.20;;;16.40;99.90;;;;;;5046790;28;20207;-76
2021/05/16 10:55:42;;;;;;;3.10;1.50;;;16.70;99.90;;;;;;5047446;28;20209;-77
2021/05/16 10:58:56;;;;;;;1.97;1.47;;;16.80;99.90;;;;;;5046613;28;20212;-77
2021/05/16 11:01:34;;;;;;;4.37;1.70;;;16.70;99.90;;;;;;5051214;28;20261;-76
2021/05/16 11:04:01;;;;;;;4.83;1.93;;;16.60;99.90;;;;;;5046296;27;20227;-76
2021/05/16 11:06:59;;;;;;;3.30;1.97;;;16.60;99.90;;;;;;5046752;28;20209;-76
2021/05/16 11:09:36;;;;;;;3.60;1.80;;;16.50;99.90;;;;;;5046900;28;20216;-76
2021/05/16 11:12:06;;;;;;;8.40;2.07;;;16.20;99.90;;;;;;5046550;28;20200;-77
2021/05/16 11:14:38;;;;;;;1.60;1.50;;;16.10;99.90;;;;;;5046164;28;20555;-74
2021/05/16 11:17:13;;;;;;;3.27;1.80;;;15.90;99.90;;;;;;5046345;28;20228;-74
2021/05/16 11:19:39;;;;;;;2.97;1.60;;;15.80;99.90;;;;;;5046536;28;20275;-74
2021/05/16 11:22:14;;;;;;;2.57;1.70;;;15.80;99.90;;;;;;5046340;28;20211;-75
2021/05/16 11:24:47;;;;;;;2.87;1.87;;;15.90;99.90;;;;;;5046296;27;20235;-75
2021/05/16 11:27:23;;;;;;;2.70;1.73;;;15.90;99.90;;;;;;5046235;28;20196;-75
2021/05/16 11:30:08;;;;;;;5.27;1.70;;;15.90;99.90;;;;;;5046324;28;20215;-74
2021/05/16 11:32:35;;;;;;;3.23;1.70;;;15.70;99.90;;;;;;5046119;28;20622;-74
2021/05/16 11:35:06;;;;;;;3.83;1.90;;;15.60;99.90;;;;;;5046008;28;20668;-75
2021/05/16 11:37:33;;;;;;;1.93;1.17;;;15.60;99.90;;;;;;5046239;28;20531;-74
2021/05/16 11:40:14;;;;;;;3.50;1.20;;;15.40;99.90;;;;;;5028248;28;533459;-75
2021/05/16 11:42:42;;;;;;;2.80;1.30;;;15.30;99.90;;;;;;5047091;28;20204;-74
2021/05/16 11:45:09;;;;;;;4.10;2.47;;;15.10;99.90;;;;;;5046884;27;20599;-75
2021/05/16 11:47:35;;;;;;;1.63;1.53;;;14.70;99.90;;;;;;5047128;28;20204;-75
2021/05/16 11:50:02;;;;;;;1.63;0.90;;;14.50;99.90;;;;;;5047143;28;20227;-74
2021/05/16 11:52:28;;;;;;;1.23;1.03;;;14.60;99.90;;;;;;5047298;27;20212;-74
2021/05/16 11:55:00;;;;;;;4.10;0.83;;;14.60;99.90;;;;;;5046933;28;20710;-75
2021/05/16 11:57:27;;;;;;;0.70;0.70;;;14.70;99.90;;;;;;5047095;28;20253;-76
2021/05/16 11:59:53;;;;;;;3.20;0.77;;;15.10;99.90;;;;;;5046909;28;20204;-76
2021/05/16 12:02:19;;;;;;;1.97;1.10;;;15.60;99.90;;;;;;5046248;28;20577;-75
2021/05/16 12:04:45;;;;;;;1.93;1.00;;;15.90;99.90;;;;;;5046792;28;20304;-75
2021/05/16 12:07:11;;;;;;;1.53;0.80;;;16.10;99.90;;;;;;5046716;28;20215;-75
2021/05/16 12:09:39;;;;;;;0.50;0.50;;;16.30;99.90;;;;;;5046955;28;20598;-75
2021/05/16 12:12:17;;;;;;;0.50;0.40;;;16.50;99.90;;;;;;5046496;28;20215;-76
2021/05/16 12:14:45;;;;;;;1.40;0.70;;;16.20;99.90;;;;;;5046421;28;20215;-75
2021/05/16 12:17:13;;;;;;;2.73;2.07;;;16.00;99.90;;;;;;5046329;28;20232;-75
2021/05/16 12:19:40;;;;;;;2.10;0.80;;;16.10;99.90;;;;;;5046708;28;20292;-76
2021/05/16 12:22:07;;;;;;;1.83;0.90;;;15.90;99.90;;;;;;5046563;28;20226;-76
2021/05/16 12:24:34;;;;;;;2.03;0.87;;;15.50;99.90;;;;;;5046645;28;20288;-75
2021/05/16 12:27:01;;;;;;;3.30;0.70;;;15.20;99.90;;;;;;5046515;28;20273;-75
2021/05/16 12:29:28;;;;;;;1.13;0.87;;;14.90;99.90;;;;;;5046112;28;20216;-75
2021/05/16 12:31:55;;;;;;;1.00;0.80;;;14.80;99.90;;;;;;5046379;28;20678;-76
2021/05/16 12:34:24;;;;;;;1.40;0.77;;;14.60;99.90;;;;;;5045832;28;20235;-75
2021/05/16 12:36:52;;;;;;;1.10;1.00;;;15.00;99.90;;;;;;5046606;28;20261;-75
2021/05/16 12:39:35;;;;;;;2.70;1.37;;;15.50;99.90;;;;;;5045876;28;20602;-75
2021/05/16 12:42:02;;;;;;;2.00;1.13;;;16.10;99.90;;;;;;5046257;28;20244;-76
2021/05/16 12:44:28;;;;;;;3.13;1.30;;;16.60;99.90;;;;;;5046078;28;20236;-75
2021/05/16 12:46:57;;;;;;;1.00;0.90;;;16.60;99.90;;;;;;5046304;28;20247;-75
2021/05/16 12:49:24;;;;;;;1.17;0.90;;;16.90;99.90;;;;;;5046112;28;20215;-75
2021/05/16 12:51:56;;;;;;;2.70;1.17;;;17.10;99.90;;;;;;5046383;28;20200;-75
2021/05/16 12:54:24;;;;;;;1.10;0.70;;;17.30;99.90;;;;;;5045976;28;20216;-75